sensor_id;sensor_type;location;lat;lon;timestamp;P1;durP1;ratioP1;P2;durP2;ratioP2
74483;SDS011;62942;52.462;10.846;2022-12-11T00:00:44;13.6;;;21.7;;
74483;SDS011;62942;52.462;10.846;2022-12-11T00:01:54;12.7;;;21.1;;
74483;SDS011;62942;52.462;10.846;2022-12-11T00:03:04;13.3;;;22;;
74483;SDS011;62942;52.462;10.846;2022-12-11T00:04:04;12.3;;;20.5;;
74483;SDS011;62942;52.462;10.846;2022-12-11T00:05:04;12.8;;;21.2;;
74483;SDS011;62942;52.462;10.846;2022-12-11T00:06:15;12.2;;;20.9;;
74483;SDS011;62942;52.462;10.846;2022-12-11T00:07:14;12.2;;;19.6;;
74483;SDS011;62942;52.462;10.846;2022-12-11T00:08:14;12.1;;;19.5;;
74483;SDS011;62942;52.462;10.846;2022-12-11T00:09:24;12.1;;;20.4;;
74483;SDS011;62942;52.462;10.846;2022-12-11T00:10:24;11.6;;;19.1;;
74483;SDS011;62942;52.462;10.846;2022-12-11T00:11:34;11.9;;;19.2;;
74483;SDS011;62942;52.462;10.846;2022-12-11T00:12:44;12.3;;;19.5;;
74483;SDS011;62942;52.462;10.846;2022-12-11T00:13:44;12.7;;;20;;
74483;SDS011;62942;52.462;10.846;2022-12-11T00:14:54;12.8;;;20.9;;
74483;SDS011;62942;52.462;10.846;2022-12-11T00:15:56;12;;;18.8;;
74483;SDS011;62942;52.462;10.846;2022-12-11T00:16:54;12.7;;;20.4;;
74483;SDS011;62942;52.462;10.846;2022-12-11T00:17:54;12.2;;;19.9;;
74483;SDS011;62942;52.462;10.846;2022-12-11T00:19:04;12;;;20.1;;
74483;SDS011;62942;52.462;10.846;2022-12-11T00:20:05;12.1;;;18.7;;
74483;SDS011;62942;52.462;10.846;2022-12-11T00:21:05;12.1;;;20.4;;
74483;SDS011;62942;52.462;10.846;2022-12-11T00:22:04;12.2;;;20.6;;
74483;SDS011;62942;52.462;10.846;2022-12-11T00:23:14;12.7;;;21.2;;
74483;SDS011;62942;52.462;10.846;2022-12-11T00:24:14;13;;;21.6;;
74483;SDS011;62942;52.462;10.846;2022-12-11T00:25:14;12.4;;;20.8;;
74483;SDS011;62942;52.462;10.846;2022-12-11T00:26:24;12.2;;;19.7;;
74483;SDS011;62942;52.462;10.846;2022-12-11T00:27:24;12.8;;;20.1;;
74483;SDS011;62942;52.462;10.846;2022-12-11T00:28:24;13.2;;;21.5;;
74483;SDS011;62942;52.462;10.846;2022-12-11T00:29:34;12.9;;;21.4;;
74483;SDS011;62942;52.462;10.846;2022-12-11T00:30:37;12.8;;;20.8;;
74483;SDS011;62942;52.462;10.846;2022-12-11T00:31:45;12.7;;;22.5;;
74483;SDS011;62942;52.462;10.846;2022-12-11T00:32:55;12.5;;;20.7;;
74483;SDS011;62942;52.462;10.846;2022-12-11T00:34:05;12.1;;;20;;
74483;SDS011;62942;52.462;10.846;2022-12-11T00:35:05;11.6;;;18.9;;
74483;SDS011;62942;52.462;10.846;2022-12-11T00:36:09;12.7;;;20;;
74483;SDS011;62942;52.462;10.846;2022-12-11T00:37:15;12.8;;;20.6;;
74483;SDS011;62942;52.462;10.846;2022-12-11T00:38:16;12.7;;;20.5;;
74483;SDS011;62942;52.462;10.846;2022-12-11T00:39:25;12.4;;;19.2;;
74483;SDS011;62942;52.462;10.846;2022-12-11T00:40:25;12.6;;;20.2;;
74483;SDS011;62942;52.462;10.846;2022-12-11T00:41:35;12.2;;;20.1;;
74483;SDS011;62942;52.462;10.846;2022-12-11T00:42:45;12.3;;;19.4;;
74483;SDS011;62942;52.462;10.846;2022-12-11T00:43:45;12;;;19.4;;
74483;SDS011;62942;52.462;10.846;2022-12-11T00:44:45;11.9;;;19.9;;
74483;SDS011;62942;52.462;10.846;2022-12-11T00:45:55;11;;;17.6;;
74483;SDS011;62942;52.462;10.846;2022-12-11T00:46:55;11.8;;;19.2;;
74483;SDS011;62942;52.462;10.846;2022-12-11T00:48:05;11.2;;;18.7;;
74483;SDS011;62942;52.462;10.846;2022-12-11T00:49:05;12;;;18.4;;
74483;SDS011;62942;52.462;10.846;2022-12-11T00:50:05;12.1;;;18.9;;
74483;SDS011;62942;52.462;10.846;2022-12-11T00:51:15;12.1;;;20;;
74483;SDS011;62942;52.462;10.846;2022-12-11T00:52:15;12.1;;;19.9;;
74483;SDS011;62942;52.462;10.846;2022-12-11T00:53:15;12.3;;;19.1;;
74483;SDS011;62942;52.462;10.846;2022-12-11T00:54:15;11.8;;;18.7;;
74483;SDS011;62942;52.462;10.846;2022-12-11T00:55:25;12.6;;;20.5;;
74483;SDS011;62942;52.462;10.846;2022-12-11T00:56:25;12.3;;;19.8;;
74483;SDS011;62942;52.462;10.846;2022-12-11T00:57:35;13.4;;;21.3;;
74483;SDS011;62942;52.462;10.846;2022-12-11T00:58:46;12.8;;;21.6;;
74483;SDS011;62942;52.462;10.846;2022-12-11T00:59:45;13.3;;;21.4;;
74483;SDS011;62942;52.462;10.846;2022-12-11T01:00:45;12.7;;;20.9;;
74483;SDS011;62942;52.462;10.846;2022-12-11T01:01:55;12.7;;;20.3;;
74483;SDS011;62942;52.462;10.846;2022-12-11T01:02:55;13;;;20;;
74483;SDS011;62942;52.462;10.846;2022-12-11T01:03:55;12.8;;;20.5;;
74483;SDS011;62942;52.462;10.846;2022-12-11T01:05:05;12.8;;;21;;
74483;SDS011;62942;52.462;10.846;2022-12-11T01:06:05;12.9;;;22.2;;
74483;SDS011;62942;52.462;10.846;2022-12-11T01:07:15;12.6;;;20.5;;
74483;SDS011;62942;52.462;10.846;2022-12-11T01:08:25;12.3;;;19.5;;
74483;SDS011;62942;52.462;10.846;2022-12-11T01:09:35;13.1;;;21.8;;
74483;SDS011;62942;52.462;10.846;2022-12-11T01:10:45;11.7;;;18.7;;
74483;SDS011;62942;52.462;10.846;2022-12-11T01:11:45;11.3;;;18.7;;
74483;SDS011;62942;52.462;10.846;2022-12-11T01:12:56;11.4;;;19;;
74483;SDS011;62942;52.462;10.846;2022-12-11T01:13:55;12.5;;;19.7;;
74483;SDS011;62942;52.462;10.846;2022-12-11T01:14:55;12.1;;;19.8;;
74483;SDS011;62942;52.462;10.846;2022-12-11T01:16:05;11.6;;;19;;
74483;SDS011;62942;52.462;10.846;2022-12-11T01:17:05;10.9;;;17.2;;
74483;SDS011;62942;52.462;10.846;2022-12-11T01:18:15;11.1;;;18.5;;
74483;SDS011;62942;52.462;10.846;2022-12-11T01:19:25;10.8;;;17;;
74483;SDS011;62942;52.462;10.846;2022-12-11T01:20:36;10.9;;;17.8;;
74483;SDS011;62942;52.462;10.846;2022-12-11T01:21:35;10.5;;;16.3;;
74483;SDS011;62942;52.462;10.846;2022-12-11T01:22:45;10.1;;;15.7;;
74483;SDS011;62942;52.462;10.846;2022-12-11T01:23:55;10.5;;;17;;
74483;SDS011;62942;52.462;10.846;2022-12-11T01:24:55;9.8;;;15.8;;
74483;SDS011;62942;52.462;10.846;2022-12-11T01:25:55;10.7;;;16.4;;
74483;SDS011;62942;52.462;10.846;2022-12-11T01:27:05;10.4;;;16.4;;
74483;SDS011;62942;52.462;10.846;2022-12-11T01:28:05;10.9;;;17.6;;
74483;SDS011;62942;52.462;10.846;2022-12-11T01:29:05;10.7;;;17.5;;
74483;SDS011;62942;52.462;10.846;2022-12-11T01:30:15;10.1;;;16.6;;
74483;SDS011;62942;52.462;10.846;2022-12-11T01:31:16;10.7;;;17.4;;
74483;SDS011;62942;52.462;10.846;2022-12-11T01:32:25;10.4;;;16.9;;
74483;SDS011;62942;52.462;10.846;2022-12-11T01:33:35;10.4;;;16.6;;
74483;SDS011;62942;52.462;10.846;2022-12-11T01:34:45;10.7;;;17;;
74483;SDS011;62942;52.462;10.846;2022-12-11T01:35:55;10.5;;;16.3;;
74483;SDS011;62942;52.462;10.846;2022-12-11T01:36:55;11;;;17.5;;
74483;SDS011;62942;52.462;10.846;2022-12-11T01:38:05;10.7;;;17;;
74483;SDS011;62942;52.462;10.846;2022-12-11T01:39:15;10.7;;;17.7;;
74483;SDS011;62942;52.462;10.846;2022-12-11T01:40:16;10.8;;;17.3;;
74483;SDS011;62942;52.462;10.846;2022-12-11T01:41:25;11;;;18.8;;
74483;SDS011;62942;52.462;10.846;2022-12-11T01:42:25;11.1;;;17.8;;
74483;SDS011;62942;52.462;10.846;2022-12-11T01:43:54;11;;;17.4;;
74483;SDS011;62942;52.462;10.846;2022-12-11T01:45:46;11.1;;;17.4;;
74483;SDS011;62942;52.462;10.846;2022-12-11T01:45:50;10.4;;;17.1;;
74483;SDS011;62942;52.462;10.846;2022-12-11T01:46:55;11;;;17.5;;
74483;SDS011;62942;52.462;10.846;2022-12-11T01:47:57;11.7;;;18.6;;
74483;SDS011;62942;52.462;10.846;2022-12-11T01:48:55;11.5;;;18.7;;
74483;SDS011;62942;52.462;10.846;2022-12-11T01:49:55;11.8;;;18.3;;
74483;SDS011;62942;52.462;10.846;2022-12-11T01:50:57;11.1;;;17.2;;
74483;SDS011;62942;52.462;10.846;2022-12-11T01:52:06;11.3;;;17.6;;
74483;SDS011;62942;52.462;10.846;2022-12-11T01:53:16;10.8;;;17.9;;
74483;SDS011;62942;52.462;10.846;2022-12-11T01:54:15;10.6;;;16.7;;
74483;SDS011;62942;52.462;10.846;2022-12-11T01:55:15;11.2;;;17.7;;
74483;SDS011;62942;52.462;10.846;2022-12-11T01:56:25;11.6;;;19;;
74483;SDS011;62942;52.462;10.846;2022-12-11T01:57:25;10.6;;;16.5;;
74483;SDS011;62942;52.462;10.846;2022-12-11T01:58:26;11.1;;;17.3;;
74483;SDS011;62942;52.462;10.846;2022-12-11T01:59:37;10.8;;;17;;
74483;SDS011;62942;52.462;10.846;2022-12-11T02:00:35;11.2;;;18.2;;
74483;SDS011;62942;52.462;10.846;2022-12-11T02:01:36;10.6;;;16.9;;
74483;SDS011;62942;52.462;10.846;2022-12-11T02:02:35;10.9;;;17.6;;
74483;SDS011;62942;52.462;10.846;2022-12-11T02:03:45;10.3;;;16.4;;
74483;SDS011;62942;52.462;10.846;2022-12-11T02:04:45;10.4;;;16.8;;
74483;SDS011;62942;52.462;10.846;2022-12-11T02:05:45;10.7;;;17.8;;
74483;SDS011;62942;52.462;10.846;2022-12-11T02:06:55;10.6;;;17.5;;
74483;SDS011;62942;52.462;10.846;2022-12-11T02:07:57;9.5;;;15.4;;
74483;SDS011;62942;52.462;10.846;2022-12-11T02:08:55;10;;;15.7;;
74483;SDS011;62942;52.462;10.846;2022-12-11T02:09:55;10.2;;;16.4;;
74483;SDS011;62942;52.462;10.846;2022-12-11T02:11:06;10;;;15.6;;
74483;SDS011;62942;52.462;10.846;2022-12-11T02:12:06;10.5;;;16.6;;
74483;SDS011;62942;52.462;10.846;2022-12-11T02:13:06;10.4;;;16.8;;
74483;SDS011;62942;52.462;10.846;2022-12-11T02:14:07;10.4;;;17.3;;
74483;SDS011;62942;52.462;10.846;2022-12-11T02:15:07;10.7;;;17.5;;
74483;SDS011;62942;52.462;10.846;2022-12-11T02:16:06;10.8;;;17.4;;
74483;SDS011;62942;52.462;10.846;2022-12-11T02:17:16;10.7;;;17.1;;
74483;SDS011;62942;52.462;10.846;2022-12-11T02:18:27;10.5;;;17.3;;
74483;SDS011;62942;52.462;10.846;2022-12-11T02:19:29;10.2;;;16.2;;
74483;SDS011;62942;52.462;10.846;2022-12-11T02:20:36;10.3;;;16.5;;
74483;SDS011;62942;52.462;10.846;2022-12-11T02:21:36;10.8;;;17.1;;
74483;SDS011;62942;52.462;10.846;2022-12-11T02:22:42;11.5;;;17.4;;
74483;SDS011;62942;52.462;10.846;2022-12-11T02:23:51;12.4;;;20.4;;
74483;SDS011;62942;52.462;10.846;2022-12-11T02:24:49;12.9;;;20.9;;
74483;SDS011;62942;52.462;10.846;2022-12-11T02:25:56;12.3;;;20;;
74483;SDS011;62942;52.462;10.846;2022-12-11T02:27:10;12.1;;;19.3;;
74483;SDS011;62942;52.462;10.846;2022-12-11T02:28:08;12.6;;;20.6;;
74483;SDS011;62942;52.462;10.846;2022-12-11T02:29:16;11.5;;;18.7;;
74483;SDS011;62942;52.462;10.846;2022-12-11T02:30:15;12.2;;;19.5;;
74483;SDS011;62942;52.462;10.846;2022-12-11T02:31:26;11.8;;;19.6;;
74483;SDS011;62942;52.462;10.846;2022-12-11T02:32:26;12.1;;;19.7;;
74483;SDS011;62942;52.462;10.846;2022-12-11T02:33:36;12.6;;;20.6;;
74483;SDS011;62942;52.462;10.846;2022-12-11T02:34:36;12.3;;;20.4;;
74483;SDS011;62942;52.462;10.846;2022-12-11T02:35:36;11.9;;;20;;
74483;SDS011;62942;52.462;10.846;2022-12-11T02:36:45;12.2;;;20.6;;
74483;SDS011;62942;52.462;10.846;2022-12-11T02:37:45;11.7;;;20.3;;
74483;SDS011;62942;52.462;10.846;2022-12-11T02:38:46;12;;;20.6;;
74483;SDS011;62942;52.462;10.846;2022-12-11T02:39:55;11.5;;;19.7;;
74483;SDS011;62942;52.462;10.846;2022-12-11T02:40:55;12.1;;;22.1;;
74483;SDS011;62942;52.462;10.846;2022-12-11T02:42:05;12.1;;;20;;
74483;SDS011;62942;52.462;10.846;2022-12-11T02:43:10;11.2;;;18.9;;
74483;SDS011;62942;52.462;10.846;2022-12-11T02:44:08;11.3;;;19.1;;
74483;SDS011;62942;52.462;10.846;2022-12-11T02:45:08;11.6;;;19.8;;
74483;SDS011;62942;52.462;10.846;2022-12-11T02:46:18;12.1;;;20.9;;
74483;SDS011;62942;52.462;10.846;2022-12-11T02:47:18;11.5;;;19.8;;
74483;SDS011;62942;52.462;10.846;2022-12-11T02:48:28;11.9;;;19.3;;
74483;SDS011;62942;52.462;10.846;2022-12-11T02:49:28;11.8;;;20.6;;
74483;SDS011;62942;52.462;10.846;2022-12-11T02:50:38;11.7;;;19.4;;
74483;SDS011;62942;52.462;10.846;2022-12-11T02:51:48;11.4;;;20.3;;
74483;SDS011;62942;52.462;10.846;2022-12-11T02:52:48;11.6;;;19.7;;
74483;SDS011;62942;52.462;10.846;2022-12-11T02:53:48;11.6;;;19.7;;
74483;SDS011;62942;52.462;10.846;2022-12-11T02:54:48;11.5;;;19.4;;
74483;SDS011;62942;52.462;10.846;2022-12-11T02:55:58;11.1;;;20.1;;
74483;SDS011;62942;52.462;10.846;2022-12-11T02:57:08;11.2;;;19.1;;
74483;SDS011;62942;52.462;10.846;2022-12-11T02:58:08;10.9;;;17.7;;
74483;SDS011;62942;52.462;10.846;2022-12-11T02:59:09;11.3;;;18.3;;
74483;SDS011;62942;52.462;10.846;2022-12-11T03:00:18;10.5;;;17.2;;
74483;SDS011;62942;52.462;10.846;2022-12-11T03:01:18;11.1;;;19.1;;
74483;SDS011;62942;52.462;10.846;2022-12-11T03:02:28;11.3;;;19.1;;
74483;SDS011;62942;52.462;10.846;2022-12-11T03:03:38;11.1;;;19;;
74483;SDS011;62942;52.462;10.846;2022-12-11T03:04:38;11.7;;;20.5;;
74483;SDS011;62942;52.462;10.846;2022-12-11T03:05:38;11.8;;;20;;
74483;SDS011;62942;52.462;10.846;2022-12-11T03:06:38;11.6;;;19.6;;
74483;SDS011;62942;52.462;10.846;2022-12-11T03:07:39;11.5;;;19.1;;
74483;SDS011;62942;52.462;10.846;2022-12-11T03:08:48;11.8;;;21.1;;
74483;SDS011;62942;52.462;10.846;2022-12-11T03:09:48;11.4;;;19.2;;
74483;SDS011;62942;52.462;10.846;2022-12-11T03:10:58;11.5;;;19.5;;
74483;SDS011;62942;52.462;10.846;2022-12-11T03:11:58;11.4;;;18.7;;
74483;SDS011;62942;52.462;10.846;2022-12-11T03:13:08;11.2;;;18.8;;
74483;SDS011;62942;52.462;10.846;2022-12-11T03:14:08;11.6;;;19.2;;
74483;SDS011;62942;52.462;10.846;2022-12-11T03:15:18;11.2;;;19.7;;
74483;SDS011;62942;52.462;10.846;2022-12-11T03:16:28;11.9;;;19.6;;
74483;SDS011;62942;52.462;10.846;2022-12-11T03:17:40;11.4;;;18.8;;
74483;SDS011;62942;52.462;10.846;2022-12-11T03:18:49;11.3;;;19.7;;
74483;SDS011;62942;52.462;10.846;2022-12-11T03:19:49;11.8;;;20;;
74483;SDS011;62942;52.462;10.846;2022-12-11T03:20:49;11.6;;;19.9;;
74483;SDS011;62942;52.462;10.846;2022-12-11T03:21:49;12;;;20.3;;
74483;SDS011;62942;52.462;10.846;2022-12-11T03:22:49;12;;;20.4;;
74483;SDS011;62942;52.462;10.846;2022-12-11T03:24:00;11.7;;;20.1;;
74483;SDS011;62942;52.462;10.846;2022-12-11T03:25:08;11.7;;;18.8;;
74483;SDS011;62942;52.462;10.846;2022-12-11T03:26:18;11.3;;;18.6;;
74483;SDS011;62942;52.462;10.846;2022-12-11T03:27:18;10.9;;;18.2;;
74483;SDS011;62942;52.462;10.846;2022-12-11T03:28:28;11;;;18.4;;
74483;SDS011;62942;52.462;10.846;2022-12-11T03:29:38;11.6;;;18.6;;
74483;SDS011;62942;52.462;10.846;2022-12-11T03:30:38;11.9;;;18.8;;
74483;SDS011;62942;52.462;10.846;2022-12-11T03:31:38;12.1;;;19.6;;
74483;SDS011;62942;52.462;10.846;2022-12-11T03:32:49;11.7;;;19.4;;
74483;SDS011;62942;52.462;10.846;2022-12-11T03:33:58;11.5;;;18.6;;
74483;SDS011;62942;52.462;10.846;2022-12-11T03:35:10;11.4;;;18.1;;
74483;SDS011;62942;52.462;10.846;2022-12-11T03:36:08;11.9;;;19.4;;
74483;SDS011;62942;52.462;10.846;2022-12-11T03:37:18;11.3;;;18.7;;
74483;SDS011;62942;52.462;10.846;2022-12-11T03:38:29;11.2;;;18.5;;
74483;SDS011;62942;52.462;10.846;2022-12-11T03:39:28;11.1;;;18.8;;
74483;SDS011;62942;52.462;10.846;2022-12-11T03:40:38;10.7;;;18;;
74483;SDS011;62942;52.462;10.846;2022-12-11T03:41:38;10.8;;;18.5;;
74483;SDS011;62942;52.462;10.846;2022-12-11T03:42:48;10.9;;;18.2;;
74483;SDS011;62942;52.462;10.846;2022-12-11T03:43:57;10.6;;;17.8;;
74483;SDS011;62942;52.462;10.846;2022-12-11T03:44:58;10.4;;;17.2;;
74483;SDS011;62942;52.462;10.846;2022-12-11T03:45:58;10.1;;;16;;
74483;SDS011;62942;52.462;10.846;2022-12-11T03:47:08;10.8;;;17.1;;
74483;SDS011;62942;52.462;10.846;2022-12-11T03:48:18;10.5;;;16.7;;
74483;SDS011;62942;52.462;10.846;2022-12-11T03:49:18;10.4;;;18;;
74483;SDS011;62942;52.462;10.846;2022-12-11T03:50:29;10.5;;;17.1;;
74483;SDS011;62942;52.462;10.846;2022-12-11T03:51:37;10;;;17.2;;
74483;SDS011;62942;52.462;10.846;2022-12-11T03:52:48;10.5;;;16.7;;
74483;SDS011;62942;52.462;10.846;2022-12-11T03:53:48;10.8;;;17.2;;
74483;SDS011;62942;52.462;10.846;2022-12-11T03:54:58;10.2;;;16.8;;
74483;SDS011;62942;52.462;10.846;2022-12-11T03:56:08;10.6;;;16.9;;
74483;SDS011;62942;52.462;10.846;2022-12-11T03:57:08;10.5;;;17.5;;
74483;SDS011;62942;52.462;10.846;2022-12-11T03:58:07;10.9;;;17.7;;
74483;SDS011;62942;52.462;10.846;2022-12-11T03:59:18;10.2;;;17.6;;
74483;SDS011;62942;52.462;10.846;2022-12-11T04:00:28;10.4;;;17.1;;
74483;SDS011;62942;52.462;10.846;2022-12-11T04:01:27;10.6;;;17.5;;
74483;SDS011;62942;52.462;10.846;2022-12-11T04:02:38;11.2;;;18.3;;
74483;SDS011;62942;52.462;10.846;2022-12-11T04:03:37;11.3;;;19.1;;
74483;SDS011;62942;52.462;10.846;2022-12-11T04:04:38;10.9;;;18.4;;
74483;SDS011;62942;52.462;10.846;2022-12-11T04:05:49;10.8;;;18.2;;
74483;SDS011;62942;52.462;10.846;2022-12-11T04:06:47;10.7;;;17.5;;
74483;SDS011;62942;52.462;10.846;2022-12-11T04:07:57;11.3;;;19.2;;
74483;SDS011;62942;52.462;10.846;2022-12-11T04:08:57;11.4;;;19.3;;
74483;SDS011;62942;52.462;10.846;2022-12-11T04:09:59;11.2;;;19.3;;
74483;SDS011;62942;52.462;10.846;2022-12-11T04:11:08;11.6;;;20.5;;
74483;SDS011;62942;52.462;10.846;2022-12-11T04:12:17;12.1;;;20.6;;
74483;SDS011;62942;52.462;10.846;2022-12-11T04:13:17;11.9;;;21.3;;
74483;SDS011;62942;52.462;10.846;2022-12-11T04:14:27;11.4;;;19.9;;
74483;SDS011;62942;52.462;10.846;2022-12-11T04:15:38;11.7;;;19.6;;
74483;SDS011;62942;52.462;10.846;2022-12-11T04:16:37;10.9;;;18.5;;
74483;SDS011;62942;52.462;10.846;2022-12-11T04:17:47;11;;;19;;
74483;SDS011;62942;52.462;10.846;2022-12-11T04:18:57;11.5;;;18.9;;
74483;SDS011;62942;52.462;10.846;2022-12-11T04:19:58;11.4;;;19.3;;
74483;SDS011;62942;52.462;10.846;2022-12-11T04:21:07;11.4;;;19.4;;
74483;SDS011;62942;52.462;10.846;2022-12-11T04:22:08;11.3;;;19.3;;
74483;SDS011;62942;52.462;10.846;2022-12-11T04:23:18;11.5;;;18.9;;
74483;SDS011;62942;52.462;10.846;2022-12-11T04:24:27;11.9;;;20.8;;
74483;SDS011;62942;52.462;10.846;2022-12-11T04:25:37;11.4;;;19.2;;
74483;SDS011;62942;52.462;10.846;2022-12-11T04:26:47;11.8;;;20.1;;
74483;SDS011;62942;52.462;10.846;2022-12-11T04:27:57;11.7;;;20.7;;
74483;SDS011;62942;52.462;10.846;2022-12-11T04:29:07;11.4;;;19.3;;
74483;SDS011;62942;52.462;10.846;2022-12-11T04:30:08;11.5;;;18.8;;
74483;SDS011;62942;52.462;10.846;2022-12-11T04:31:18;10.9;;;17.9;;
74483;SDS011;62942;52.462;10.846;2022-12-11T04:32:17;11.3;;;18.6;;
74483;SDS011;62942;52.462;10.846;2022-12-11T04:33:28;11.6;;;19;;
74483;SDS011;62942;52.462;10.846;2022-12-11T04:34:37;11.1;;;18.7;;
74483;SDS011;62942;52.462;10.846;2022-12-11T04:35:47;11;;;19.2;;
74483;SDS011;62942;52.462;10.846;2022-12-11T04:36:48;11.3;;;19.3;;
74483;SDS011;62942;52.462;10.846;2022-12-11T04:37:47;12.1;;;20.6;;
74483;SDS011;62942;52.462;10.846;2022-12-11T04:38:57;11.9;;;19.3;;
74483;SDS011;62942;52.462;10.846;2022-12-11T04:39:57;11.5;;;19.4;;
74483;SDS011;62942;52.462;10.846;2022-12-11T04:41:09;11.7;;;20.5;;
74483;SDS011;62942;52.462;10.846;2022-12-11T04:42:17;11.9;;;20.1;;
74483;SDS011;62942;52.462;10.846;2022-12-11T04:43:17;11.5;;;19.8;;
74483;SDS011;62942;52.462;10.846;2022-12-11T04:44:17;11.6;;;20.2;;
74483;SDS011;62942;52.462;10.846;2022-12-11T04:45:17;11.8;;;20.3;;
74483;SDS011;62942;52.462;10.846;2022-12-11T04:46:27;11.8;;;20.6;;
74483;SDS011;62942;52.462;10.846;2022-12-11T04:47:27;11.9;;;20;;
74483;SDS011;62942;52.462;10.846;2022-12-11T04:48:27;12.4;;;21.3;;
74483;SDS011;62942;52.462;10.846;2022-12-11T04:49:27;12.4;;;21.7;;
74483;SDS011;62942;52.462;10.846;2022-12-11T04:50:37;12.3;;;21.7;;
74483;SDS011;62942;52.462;10.846;2022-12-11T04:51:47;12.3;;;20.7;;
74483;SDS011;62942;52.462;10.846;2022-12-11T04:52:57;12.4;;;21.6;;
74483;SDS011;62942;52.462;10.846;2022-12-11T04:53:57;12.4;;;21.6;;
74483;SDS011;62942;52.462;10.846;2022-12-11T04:54:57;12.9;;;23;;
74483;SDS011;62942;52.462;10.846;2022-12-11T04:56:08;12.3;;;22;;
74483;SDS011;62942;52.462;10.846;2022-12-11T04:57:17;12.5;;;22.4;;
74483;SDS011;62942;52.462;10.846;2022-12-11T04:58:27;12.5;;;22.5;;
74483;SDS011;62942;52.462;10.846;2022-12-11T04:59:27;12.6;;;21.4;;
74483;SDS011;62942;52.462;10.846;2022-12-11T05:00:27;12.4;;;20.8;;
74483;SDS011;62942;52.462;10.846;2022-12-11T05:01:27;12;;;21.3;;
74483;SDS011;62942;52.462;10.846;2022-12-11T05:02:38;12.6;;;22;;
74483;SDS011;62942;52.462;10.846;2022-12-11T05:03:38;12.5;;;22;;
74483;SDS011;62942;52.462;10.846;2022-12-11T05:04:47;12.5;;;21.4;;
74483;SDS011;62942;52.462;10.846;2022-12-11T05:05:57;12.4;;;22.3;;
74483;SDS011;62942;52.462;10.846;2022-12-11T05:07:07;11.9;;;21;;
74483;SDS011;62942;52.462;10.846;2022-12-11T05:08:18;12.5;;;22.5;;
74483;SDS011;62942;52.462;10.846;2022-12-11T05:09:27;12.4;;;21.2;;
74483;SDS011;62942;52.462;10.846;2022-12-11T05:10:27;12.3;;;22.1;;
74483;SDS011;62942;52.462;10.846;2022-12-11T05:11:27;12.5;;;22.5;;
74483;SDS011;62942;52.462;10.846;2022-12-11T05:12:37;12.6;;;22.1;;
74483;SDS011;62942;52.462;10.846;2022-12-11T05:13:38;12.4;;;22;;
74483;SDS011;62942;52.462;10.846;2022-12-11T05:14:50;12.8;;;22.3;;
74483;SDS011;62942;52.462;10.846;2022-12-11T05:15:47;12.6;;;21.3;;
74483;SDS011;62942;52.462;10.846;2022-12-11T05:16:57;12.4;;;21.8;;
74483;SDS011;62942;52.462;10.846;2022-12-11T05:17:57;12.3;;;21.4;;
74483;SDS011;62942;52.462;10.846;2022-12-11T05:18:57;12;;;21.1;;
74483;SDS011;62942;52.462;10.846;2022-12-11T05:19:57;12.2;;;21;;
74483;SDS011;62942;52.462;10.846;2022-12-11T05:20:58;12.6;;;22.6;;
74483;SDS011;62942;52.462;10.846;2022-12-11T05:22:07;12.1;;;21.2;;
74483;SDS011;62942;52.462;10.846;2022-12-11T05:23:07;12.2;;;21.8;;
74483;SDS011;62942;52.462;10.846;2022-12-11T05:24:18;12.9;;;23.2;;
74483;SDS011;62942;52.462;10.846;2022-12-11T05:25:27;12.2;;;21.4;;
74483;SDS011;62942;52.462;10.846;2022-12-11T05:26:37;12.1;;;20.7;;
74483;SDS011;62942;52.462;10.846;2022-12-11T05:27:47;12.3;;;22;;
74483;SDS011;62942;52.462;10.846;2022-12-11T05:28:57;12.1;;;23.4;;
74483;SDS011;62942;52.462;10.846;2022-12-11T05:30:08;11.5;;;19.7;;
74483;SDS011;62942;52.462;10.846;2022-12-11T05:31:18;12.3;;;22;;
74483;SDS011;62942;52.462;10.846;2022-12-11T05:32:17;13;;;23.4;;
74483;SDS011;62942;52.462;10.846;2022-12-11T05:33:27;12.5;;;22.5;;
74483;SDS011;62942;52.462;10.846;2022-12-11T05:34:37;12.5;;;21.5;;
74483;SDS011;62942;52.462;10.846;2022-12-11T05:35:47;12.7;;;22.2;;
74483;SDS011;62942;52.462;10.846;2022-12-11T05:36:57;12.2;;;22;;
74483;SDS011;62942;52.462;10.846;2022-12-11T05:38:07;12.1;;;21.1;;
74483;SDS011;62942;52.462;10.846;2022-12-11T05:39:17;11.9;;;22.2;;
74483;SDS011;62942;52.462;10.846;2022-12-11T05:40:17;12.3;;;21.3;;
74483;SDS011;62942;52.462;10.846;2022-12-11T05:41:28;11.7;;;20.6;;
74483;SDS011;62942;52.462;10.846;2022-12-11T05:42:37;11.6;;;20.3;;
74483;SDS011;62942;52.462;10.846;2022-12-11T05:43:37;11.8;;;20;;
74483;SDS011;62942;52.462;10.846;2022-12-11T05:44:48;12.3;;;21.8;;
74483;SDS011;62942;52.462;10.846;2022-12-11T05:45:47;12;;;21.1;;
74483;SDS011;62942;52.462;10.846;2022-12-11T05:46:57;12.2;;;21.3;;
74483;SDS011;62942;52.462;10.846;2022-12-11T05:47:57;12.1;;;21.2;;
74483;SDS011;62942;52.462;10.846;2022-12-11T05:49:08;12;;;21.3;;
74483;SDS011;62942;52.462;10.846;2022-12-11T05:50:17;12.3;;;21.2;;
74483;SDS011;62942;52.462;10.846;2022-12-11T05:51:28;12.1;;;21.6;;
74483;SDS011;62942;52.462;10.846;2022-12-11T05:52:27;12.2;;;21.5;;
74483;SDS011;62942;52.462;10.846;2022-12-11T05:53:38;12.3;;;21;;
74483;SDS011;62942;52.462;10.846;2022-12-11T05:54:47;11.9;;;21;;
74483;SDS011;62942;52.462;10.846;2022-12-11T05:55:47;12.1;;;21.1;;
74483;SDS011;62942;52.462;10.846;2022-12-11T05:56:57;12.5;;;21.1;;
74483;SDS011;62942;52.462;10.846;2022-12-11T05:58:07;12.1;;;21.4;;
74483;SDS011;62942;52.462;10.846;2022-12-11T05:59:17;12.7;;;22.6;;
74483;SDS011;62942;52.462;10.846;2022-12-11T06:00:27;12.7;;;21.6;;
74483;SDS011;62942;52.462;10.846;2022-12-11T06:01:38;12.6;;;22.6;;
74483;SDS011;62942;52.462;10.846;2022-12-11T06:02:47;12.3;;;22.3;;
74483;SDS011;62942;52.462;10.846;2022-12-11T06:03:57;13.3;;;22.9;;
74483;SDS011;62942;52.462;10.846;2022-12-11T06:05:07;12.6;;;22.7;;
74483;SDS011;62942;52.462;10.846;2022-12-11T06:06:07;12.5;;;21.7;;
74483;SDS011;62942;52.462;10.846;2022-12-11T06:07:07;12.7;;;22.6;;
74483;SDS011;62942;52.462;10.846;2022-12-11T06:08:17;12.8;;;22.9;;
74483;SDS011;62942;52.462;10.846;2022-12-11T06:09:17;13.2;;;23.8;;
74483;SDS011;62942;52.462;10.846;2022-12-11T06:10:27;12.6;;;22.1;;
74483;SDS011;62942;52.462;10.846;2022-12-11T06:11:28;12.9;;;23.1;;
74483;SDS011;62942;52.462;10.846;2022-12-11T06:12:37;12.7;;;22.8;;
74483;SDS011;62942;52.462;10.846;2022-12-11T06:13:47;12.4;;;22.5;;
74483;SDS011;62942;52.462;10.846;2022-12-11T06:14:47;13;;;24;;
74483;SDS011;62942;52.462;10.846;2022-12-11T06:15:59;13.2;;;23.2;;
74483;SDS011;62942;52.462;10.846;2022-12-11T06:17:07;13.6;;;24.4;;
74483;SDS011;62942;52.462;10.846;2022-12-11T06:18:17;13.3;;;24.4;;
74483;SDS011;62942;52.462;10.846;2022-12-11T06:19:27;12.9;;;22.8;;
74483;SDS011;62942;52.462;10.846;2022-12-11T06:20:29;13;;;23.9;;
74483;SDS011;62942;52.462;10.846;2022-12-11T06:21:37;13.2;;;24.4;;
74483;SDS011;62942;52.462;10.846;2022-12-11T06:22:37;13.8;;;24.9;;
74483;SDS011;62942;52.462;10.846;2022-12-11T06:23:48;13.1;;;23.9;;
74483;SDS011;62942;52.462;10.846;2022-12-11T06:24:47;13.3;;;24.6;;
74483;SDS011;62942;52.462;10.846;2022-12-11T06:25:57;13.2;;;23.5;;
74483;SDS011;62942;52.462;10.846;2022-12-11T06:27:07;12.9;;;23.8;;
74483;SDS011;62942;52.462;10.846;2022-12-11T06:28:17;13.1;;;24.3;;
74483;SDS011;62942;52.462;10.846;2022-12-11T06:29:27;13.5;;;24.5;;
74483;SDS011;62942;52.462;10.846;2022-12-11T06:30:27;13.7;;;25.8;;